createdAt,value
2022-08-23T04:00:34.244Z,54.07
2022-08-23T04:01:34.248Z,53.97
2022-08-23T04:02:34.191Z,53.80
2022-08-23T04:03:34.177Z,53.97
2022-08-23T04:04:34.187Z,54.10
2022-08-23T04:05:34.157Z,53.80
2022-08-23T04:06:34.149Z,53.30
2022-08-23T04:07:34.148Z,53.09
2022-08-23T04:08:34.182Z,52.77
2022-08-23T04:09:34.120Z,53.17
2022-08-23T04:10:34.101Z,52.57
2022-08-23T04:11:39.113Z,53.07
2022-08-23T04:12:34.085Z,53.00
2022-08-23T04:13:34.067Z,53.57
2022-08-23T04:14:34.071Z,52.97
2022-08-23T04:15:34.045Z,52.97
2022-08-23T04:16:34.037Z,53.30
2022-08-23T04:17:34.021Z,53.19
2022-08-23T04:18:34.016Z,53.19
2022-08-23T04:19:34.009Z,52.47
2022-08-23T04:20:33.999Z,53.09
2022-08-23T04:21:33.978Z,52.39
2022-08-23T04:22:38.988Z,52.27
2022-08-23T04:23:33.953Z,52.07
2022-08-23T04:24:33.952Z,52.97
2022-08-23T04:25:35.762Z,52.67
2022-08-23T04:26:33.921Z,52.27
2022-08-23T04:27:33.912Z,52.07
2022-08-23T04:28:33.905Z,52.17
2022-08-23T04:29:34.708Z,52.57
2022-08-23T04:30:33.877Z,52.97
2022-08-23T04:31:34.537Z,52.27
2022-08-23T04:32:34.343Z,52.87
2022-08-23T04:33:40.246Z,52.47
2022-08-23T04:34:33.845Z,52.77
2022-08-23T04:35:33.828Z,53.37
2022-08-23T04:36:34.646Z,53.17
2022-08-23T04:37:33.799Z,53.17
2022-08-23T04:38:33.796Z,53.24
2022-08-23T04:39:33.788Z,53.27
2022-08-23T04:40:33.803Z,53.55
2022-08-23T04:41:33.756Z,52.94
2022-08-23T04:42:33.745Z,52.74
2022-08-23T04:43:33.738Z,53.97
2022-08-23T04:44:38.751Z,54.64
2022-08-23T04:45:33.715Z,54.97
2022-08-23T04:46:33.700Z,53.87
2022-08-23T04:47:33.695Z,54.67
2022-08-23T04:48:33.676Z,54.27
2022-08-23T04:49:33.677Z,54.35
2022-08-23T04:50:33.652Z,55.37
2022-08-23T04:51:33.644Z,54.85
2022-08-23T04:52:33.632Z,54.74
2022-08-23T04:53:33.626Z,54.44
2022-08-23T04:54:33.610Z,54.35
2022-08-23T04:55:38.666Z,54.24
2022-08-23T04:56:33.596Z,54.55
2022-08-23T04:57:33.611Z,54.92
2022-08-23T04:58:33.571Z,54.62
2022-08-23T04:59:33.557Z,54.92
2022-08-23T05:00:33.662Z,54.82
2022-08-23T05:01:33.541Z,54.92
2022-08-23T05:02:33.523Z,54.02
2022-08-23T05:03:33.516Z,54.12
2022-08-23T05:04:33.508Z,54.22
2022-08-23T05:05:33.520Z,53.72
2022-08-23T05:06:39.513Z,54.42
2022-08-23T05:07:42.318Z,54.22
2022-08-23T05:08:34.457Z,54.12
2022-08-23T05:09:33.458Z,54.42
2022-08-23T05:10:33.449Z,54.42
2022-08-23T05:11:33.424Z,54.82
2022-08-23T05:12:33.411Z,54.02
2022-08-23T05:13:34.696Z,53.92
2022-08-23T05:14:33.387Z,54.02
2022-08-23T05:15:33.391Z,53.92
2022-08-23T05:16:33.371Z,53.92
2022-08-23T05:17:38.392Z,53.82
2022-08-23T05:18:33.384Z,53.92
2022-08-23T05:19:33.336Z,53.52
2022-08-23T05:20:33.339Z,52.80
2022-08-23T05:21:33.319Z,52.59
2022-08-23T05:22:33.306Z,52.72
2022-08-23T05:23:33.300Z,52.82
2022-08-23T05:24:33.277Z,52.92
2022-08-23T05:25:33.283Z,54.02
2022-08-23T05:26:33.257Z,52.52
2022-08-23T05:27:33.376Z,53.02
2022-08-23T05:28:38.265Z,53.12
2022-08-23T05:29:33.227Z,53.72
2022-08-23T05:30:33.224Z,53.62
2022-08-23T05:31:33.205Z,53.52
2022-08-23T05:32:33.793Z,54.02
2022-08-23T05:33:33.185Z,53.94
2022-08-23T05:34:33.165Z,53.94
2022-08-23T05:35:33.179Z,53.94
2022-08-23T05:36:33.146Z,54.14
2022-08-23T05:37:33.137Z,54.55
2022-08-23T05:38:33.122Z,54.35
2022-08-23T05:39:38.143Z,54.05
2022-08-23T05:40:33.124Z,54.05
2022-08-23T05:41:33.352Z,53.94
2022-08-23T05:42:34.081Z,54.05
2022-08-23T05:43:33.078Z,54.05
2022-08-23T05:44:36.435Z,54.32
2022-08-23T05:45:33.058Z,54.24
2022-08-23T05:46:33.034Z,54.12
2022-08-23T05:47:33.921Z,53.92
2022-08-23T05:48:33.012Z,54.02
2022-08-23T05:49:33.460Z,53.39
2022-08-23T05:50:38.036Z,53.89
2022-08-23T05:51:32.982Z,53.69
2022-08-23T05:52:32.968Z,53.39
2022-08-23T05:53:32.959Z,52.77
2022-08-23T05:54:32.951Z,52.97
2022-08-23T05:55:34.835Z,52.97
2022-08-23T05:56:32.934Z,52.27
2022-08-23T05:57:32.912Z,51.94
2022-08-23T05:58:32.899Z,52.04
2022-08-23T05:59:32.893Z,52.12
2022-08-23T06:00:40.397Z,52.44
2022-08-23T06:01:38.915Z,52.25
2022-08-23T06:02:32.889Z,52.57
2022-08-23T06:03:32.846Z,52.77
2022-08-23T06:04:32.909Z,52.27
2022-08-23T06:05:32.827Z,53.09
2022-08-23T06:06:37.271Z,53.09
2022-08-23T06:07:32.812Z,52.87
2022-08-23T06:08:32.791Z,52.47
2022-08-23T06:09:32.783Z,52.04
2022-08-23T06:10:32.770Z,52.37
2022-08-23T06:11:32.801Z,52.77
2022-08-23T06:12:37.765Z,52.25
2022-08-23T06:13:32.759Z,52.47
2022-08-23T06:14:32.776Z,52.47
2022-08-23T06:15:32.714Z,52.47
2022-08-23T06:16:32.734Z,52.87
2022-08-23T06:17:32.698Z,52.29
2022-08-23T06:18:32.690Z,52.07
2022-08-23T06:19:32.704Z,51.22
2022-08-23T06:20:32.747Z,50.40
2022-08-23T06:21:32.658Z,50.07
2022-08-23T06:22:32.632Z,49.03
2022-08-23T06:23:37.653Z,47.31
2022-08-23T06:24:32.626Z,47.39
2022-08-23T06:25:32.605Z,46.49
2022-08-23T06:26:32.600Z,46.57
2022-08-23T06:27:32.707Z,45.95
2022-08-23T06:28:32.617Z,46.97
2022-08-23T06:29:32.566Z,46.97
2022-08-23T06:30:34.481Z,47.07
2022-08-23T06:31:32.550Z,47.07
2022-08-23T06:32:32.597Z,46.99
2022-08-23T06:33:32.557Z,48.31
2022-08-23T06:34:37.521Z,48.63
2022-08-23T06:35:37.865Z,49.35
2022-08-23T06:36:33.487Z,49.65
2022-08-23T06:37:32.469Z,49.75
2022-08-23T06:38:32.517Z,49.63
2022-08-23T06:39:35.543Z,49.43
2022-08-23T06:40:33.439Z,48.83
2022-08-23T06:41:32.456Z,49.75
2022-08-23T06:42:38.517Z,49.95
2022-08-23T06:43:33.440Z,49.45
2022-08-23T06:44:32.396Z,49.85
2022-08-23T06:45:37.403Z,49.85
2022-08-23T06:46:32.429Z,49.95
2022-08-23T06:47:32.360Z,50.65
2022-08-23T06:48:32.364Z,50.17
2022-08-23T06:49:32.348Z,50.97
2022-08-23T06:50:32.621Z,51.07
2022-08-23T06:51:32.360Z,51.50
2022-08-23T06:52:32.303Z,50.67
2022-08-23T06:53:32.318Z,49.75
2022-08-23T06:54:32.289Z,50.02
2022-08-23T06:55:32.290Z,48.71
2022-08-23T06:56:37.291Z,49.10
2022-08-23T06:57:32.259Z,49.01
2022-08-23T06:58:32.274Z,48.61
2022-08-23T06:59:32.650Z,48.91
2022-08-23T07:00:32.282Z,48.50
2022-08-23T07:01:47.847Z,48.75
2022-08-23T07:02:33.275Z,48.75
2022-08-23T07:03:32.287Z,49.85
2022-08-23T07:04:32.223Z,50.05
2022-08-23T07:05:32.174Z,50.32
2022-08-23T07:06:32.320Z,50.15
2022-08-23T07:07:37.642Z,49.93
2022-08-23T07:08:33.318Z,49.73
2022-08-23T07:09:32.116Z,48.63
2022-08-23T07:10:32.111Z,48.63
2022-08-23T07:11:32.120Z,48.63
2022-08-23T07:12:32.079Z,48.41
2022-08-23T07:13:32.079Z,48.11
2022-08-23T07:14:32.059Z,47.81
2022-08-23T07:15:32.047Z,48.11
2022-08-23T07:16:32.135Z,48.31
2022-08-23T07:17:32.026Z,48.53
2022-08-23T07:18:37.034Z,48.50
2022-08-23T07:19:32.009Z,48.53
2022-08-23T07:20:32.001Z,48.03
2022-08-23T07:21:31.987Z,48.43
2022-08-23T07:22:31.993Z,48.53
2022-08-23T07:23:31.969Z,48.41
2022-08-23T07:24:33.636Z,47.61
2022-08-23T07:25:31.952Z,48.01
2022-08-23T07:26:31.926Z,48.28
2022-08-23T07:27:31.979Z,47.39
2022-08-23T07:28:31.904Z,47.19
2022-08-23T07:29:36.930Z,46.89
2022-08-23T07:30:31.885Z,46.99
2022-08-23T07:31:31.989Z,46.79
2022-08-23T07:32:31.856Z,46.79
2022-08-23T07:33:31.855Z,46.91
2022-08-23T07:34:31.831Z,46.99
2022-08-23T07:35:34.613Z,47.79
2022-08-23T07:36:32.833Z,48.08
2022-08-23T07:37:31.805Z,47.59
2022-08-23T07:38:31.788Z,46.99
2022-08-23T07:39:31.858Z,47.49
2022-08-23T07:40:38.998Z,47.56
2022-08-23T07:41:32.810Z,46.77
2022-08-23T07:42:31.741Z,46.87
2022-08-23T07:43:31.736Z,47.37
2022-08-23T07:44:31.723Z,46.87
2022-08-23T07:45:31.714Z,48.07
2022-08-23T07:46:31.763Z,47.37
2022-08-23T07:47:31.688Z,46.84
2022-08-23T07:48:52.425Z,46.45
2022-08-23T07:49:32.669Z,46.84
2022-08-23T07:50:31.660Z,46.45
2022-08-23T07:51:36.686Z,47.34
2022-08-23T07:52:31.636Z,46.72
2022-08-23T07:53:37.899Z,46.84
2022-08-23T07:54:32.630Z,47.14
2022-08-23T07:55:31.599Z,47.05
2022-08-23T07:56:31.593Z,47.25
2022-08-23T07:57:31.610Z,47.34
2022-08-23T07:58:31.568Z,46.95
2022-08-23T07:59:34.672Z,46.84
2022-08-23T08:00:31.547Z,46.84
2022-08-23T08:01:31.606Z,46.84
2022-08-23T08:02:36.620Z,46.95
2022-08-23T08:03:31.520Z,46.84
2022-08-23T08:04:31.495Z,47.05
2022-08-23T08:05:31.496Z,47.14
2022-08-23T08:06:31.474Z,46.84
2022-08-23T08:07:31.501Z,46.55
2022-08-23T08:08:31.522Z,46.35
2022-08-23T08:09:31.443Z,47.14
2022-08-23T08:10:31.457Z,46.62
2022-08-23T08:11:34.737Z,46.55
2022-08-23T08:12:31.418Z,46.53
2022-08-23T08:13:36.425Z,46.72
2022-08-23T08:14:31.388Z,46.92
2022-08-23T08:15:31.379Z,46.83
2022-08-23T08:16:31.476Z,47.82
2022-08-23T08:17:31.370Z,47.42
2022-08-23T08:18:31.344Z,48.02
2022-08-23T08:19:31.343Z,48.02
2022-08-23T08:20:31.320Z,47.32
2022-08-23T08:21:31.315Z,46.72
2022-08-23T08:22:31.309Z,47.22
2022-08-23T08:23:31.293Z,47.32
2022-08-23T08:24:36.302Z,47.22
2022-08-23T08:25:31.322Z,47.13
2022-08-23T08:26:31.258Z,47.20
2022-08-23T08:27:31.256Z,46.20
2022-08-23T08:28:31.235Z,46.70
2022-08-23T08:29:31.250Z,46.70
2022-08-23T08:30:31.215Z,46.70
2022-08-23T08:31:31.306Z,47.30
2022-08-23T08:32:31.201Z,47.40
2022-08-23T08:33:31.182Z,46.68
2022-08-23T08:34:31.177Z,47.08
2022-08-23T08:35:36.187Z,45.79
2022-08-23T08:36:31.155Z,45.86
2022-08-23T08:37:31.155Z,46.19
2022-08-23T08:38:31.134Z,45.47
2022-08-23T08:39:31.113Z,45.89
2022-08-23T08:40:31.107Z,45.76
2022-08-23T08:41:31.092Z,46.06
2022-08-23T08:42:31.094Z,46.06
2022-08-23T08:43:31.070Z,45.96
2022-08-23T08:44:31.060Z,45.86
2022-08-23T08:45:31.143Z,45.76
2022-08-23T08:46:36.143Z,46.06
2022-08-23T08:47:31.055Z,45.76
2022-08-23T08:48:31.019Z,46.95
2022-08-23T08:49:31.971Z,45.67
2022-08-23T08:50:30.995Z,46.16
2022-08-23T08:51:30.983Z,45.76
2022-08-23T08:52:32.223Z,45.27
2022-08-23T08:53:30.967Z,45.74
2022-08-23T08:54:30.951Z,45.94
2022-08-23T08:55:30.944Z,45.25
2022-08-23T08:56:32.159Z,44.65
2022-08-23T08:57:35.954Z,45.45
2022-08-23T08:58:30.916Z,45.54
2022-08-23T08:59:30.892Z,45.54
2022-08-23T09:00:30.896Z,45.94
2022-08-23T09:01:30.893Z,45.92
2022-08-23T09:02:32.624Z,45.23
2022-08-23T09:03:30.929Z,45.62
2022-08-23T09:04:30.874Z,45.23
2022-08-23T09:05:30.827Z,45.62
2022-08-23T09:06:30.836Z,45.12
2022-08-23T09:07:31.449Z,45.20
2022-08-23T09:08:35.836Z,44.81
2022-08-23T09:09:30.823Z,45.20
2022-08-23T09:10:30.784Z,45.30
2022-08-23T09:11:30.770Z,44.49
2022-08-23T09:12:30.763Z,45.08
2022-08-23T09:13:30.739Z,44.49
2022-08-23T09:14:31.756Z,44.49
2022-08-23T09:15:30.723Z,44.41
2022-08-23T09:16:30.713Z,44.49
2022-08-23T09:17:30.713Z,44.81
2022-08-23T09:18:30.688Z,44.39
2022-08-23T09:19:35.696Z,44.60
2022-08-23T09:20:33.101Z,44.78
2022-08-23T09:21:30.656Z,44.49
2022-08-23T09:22:30.644Z,44.09
2022-08-23T09:23:30.644Z,43.79
2022-08-23T09:24:30.627Z,43.48
2022-08-23T09:25:30.611Z,43.49
2022-08-23T09:26:30.605Z,43.79
2022-08-23T09:27:32.698Z,44.07
2022-08-23T09:28:30.592Z,43.38
2022-08-23T09:29:30.569Z,43.57
2022-08-23T09:30:35.583Z,43.48
2022-08-23T09:31:34.148Z,43.57
2022-08-23T09:32:31.541Z,43.67
2022-08-23T09:33:30.538Z,43.65
2022-08-23T09:34:30.529Z,42.54
2022-08-23T09:35:30.501Z,41.97
2022-08-23T09:36:30.498Z,42.66
2022-08-23T09:37:30.481Z,42.76
2022-08-23T09:38:30.486Z,42.36
2022-08-23T09:39:31.207Z,42.96
2022-08-23T09:40:30.451Z,42.76
2022-08-23T09:41:35.467Z,42.35
2022-08-23T09:42:30.437Z,43.06
2022-08-23T09:43:30.440Z,42.25
2022-08-23T09:44:30.414Z,42.74
2022-08-23T09:45:35.105Z,42.64
2022-08-23T09:46:31.475Z,42.05
2022-08-23T09:47:30.375Z,42.36
2022-08-23T09:48:31.232Z,42.57
2022-08-23T09:49:30.364Z,42.44
2022-08-23T09:50:30.359Z,42.05
2022-08-23T09:51:30.336Z,42.03
2022-08-23T09:52:35.350Z,41.24
2022-08-23T09:53:30.326Z,41.83
2022-08-23T09:54:30.310Z,41.83
2022-08-23T09:55:30.285Z,41.81
2022-08-23T09:56:30.278Z,41.33
2022-08-23T09:57:30.267Z,40.94
2022-08-23T09:58:30.275Z,41.04
2022-08-23T09:59:30.247Z,41.52
2022-08-23T10:00:30.232Z,41.61
2022-08-23T10:01:30.327Z,41.81
2022-08-23T10:02:30.211Z,41.61
2022-08-23T10:03:35.239Z,41.61
2022-08-23T10:04:30.207Z,41.71
2022-08-23T10:05:30.176Z,40.80
2022-08-23T10:06:31.056Z,40.90
2022-08-23T10:07:30.153Z,40.90
2022-08-23T10:08:30.151Z,40.41
2022-08-23T10:09:30.140Z,41.30
2022-08-23T10:10:30.122Z,40.50
2022-08-23T10:11:30.114Z,40.92
2022-08-23T10:12:30.100Z,40.90
2022-08-23T10:13:30.092Z,41.30
2022-08-23T10:14:35.145Z,40.41
2022-08-23T10:15:33.097Z,41.00
2022-08-23T10:16:31.098Z,40.61
2022-08-23T10:17:30.044Z,40.78
2022-08-23T10:18:30.054Z,40.48
2022-08-23T10:19:30.033Z,40.39
2022-08-23T10:20:30.038Z,41.08
2022-08-23T10:21:30.009Z,40.48
2022-08-23T10:22:29.994Z,41.08
2022-08-23T10:23:29.990Z,40.76
2022-08-23T10:24:29.995Z,40.78
2022-08-23T10:25:34.982Z,39.99
2022-08-23T10:26:29.946Z,40.56
2022-08-23T10:27:29.934Z,40.29
2022-08-23T10:28:29.934Z,39.68
2022-08-23T10:29:30.923Z,39.97
2022-08-23T10:30:29.901Z,40.47
2022-08-23T10:31:29.912Z,39.97
2022-08-23T10:32:29.880Z,40.66
2022-08-23T10:33:29.875Z,40.66
2022-08-23T10:34:30.117Z,39.87
2022-08-23T10:35:29.849Z,40.27
2022-08-23T10:36:34.869Z,40.25
2022-08-23T10:37:29.824Z,39.76
2022-08-23T10:38:29.815Z,39.65
2022-08-23T10:39:29.824Z,39.76
2022-08-23T10:40:29.830Z,39.56
2022-08-23T10:41:29.816Z,40.07
2022-08-23T10:42:29.782Z,39.48
2022-08-23T10:43:29.765Z,39.68
2022-08-23T10:44:29.767Z,39.46
2022-08-23T10:45:29.743Z,39.64
2022-08-23T10:46:29.791Z,39.44
2022-08-23T10:47:34.739Z,39.76
2022-08-23T10:48:29.706Z,39.34
2022-08-23T10:49:29.730Z,38.75
2022-08-23T10:50:29.703Z,38.93
2022-08-23T10:51:31.322Z,38.26
2022-08-23T10:52:29.663Z,38.65
2022-08-23T10:53:29.652Z,38.85
2022-08-23T10:54:29.655Z,39.54
2022-08-23T10:55:29.635Z,38.06
2022-08-23T10:56:29.627Z,38.35
2022-08-23T10:57:29.608Z,38.45
2022-08-23T10:58:34.620Z,39.12
2022-08-23T10:59:29.605Z,38.73
2022-08-23T11:00:29.584Z,37.83
2022-08-23T11:01:29.626Z,37.95
2022-08-23T11:02:29.616Z,37.53
2022-08-23T11:03:29.543Z,37.73
2022-08-23T11:04:29.543Z,37.53
2022-08-23T11:05:29.525Z,37.73
2022-08-23T11:06:29.513Z,38.22
2022-08-23T11:07:29.504Z,37.43
2022-08-23T11:08:29.519Z,37.43
2022-08-23T11:09:34.512Z,38.12
2022-08-23T11:10:29.491Z,37.63
2022-08-23T11:11:29.480Z,37.51
2022-08-23T11:12:29.448Z,37.22
2022-08-23T11:13:29.456Z,37.51
2022-08-23T11:14:29.511Z,37.02
2022-08-23T11:15:29.437Z,36.92
2022-08-23T11:16:29.406Z,37.81
2022-08-23T11:17:29.392Z,36.33
2022-08-23T11:18:33.148Z,36.94
2022-08-23T11:19:29.383Z,36.72
2022-08-23T11:20:29.362Z,37.43
2022-08-23T11:21:29.349Z,37.12
2022-08-23T11:22:34.374Z,36.72
2022-08-23T11:23:29.351Z,36.63
2022-08-23T11:24:29.350Z,36.23
2022-08-23T11:25:29.316Z,35.54
2022-08-23T11:26:29.296Z,35.74
2022-08-23T11:27:29.285Z,35.25
2022-08-23T11:28:30.438Z,35.05
2022-08-23T11:29:29.273Z,36.04
2022-08-23T11:30:29.262Z,36.02
2022-08-23T11:31:29.241Z,36.23
2022-08-23T11:32:30.074Z,35.54
2022-08-23T11:33:29.219Z,35.94
2022-08-23T11:34:29.680Z,35.74
2022-08-23T11:35:34.238Z,35.63
2022-08-23T11:36:29.214Z,34.75
2022-08-23T11:37:29.201Z,33.56
2022-08-23T11:38:29.178Z,33.56
2022-08-23T11:39:29.155Z,34.43
2022-08-23T11:40:29.179Z,34.23
2022-08-23T11:41:30.127Z,34.63
2022-08-23T11:42:29.124Z,34.80
2022-08-23T11:43:29.119Z,35.69
2022-08-23T11:44:29.105Z,35.59
2022-08-23T11:45:29.115Z,35.59
2022-08-23T11:46:29.191Z,35.20
2022-08-23T11:47:29.069Z,34.70
2022-08-23T11:48:34.093Z,35.11
2022-08-23T11:49:29.070Z,35.49
2022-08-23T11:50:29.074Z,35.02
2022-08-23T11:51:29.051Z,34.70
2022-08-23T11:52:29.017Z,34.01
2022-08-23T11:53:29.007Z,34.51
2022-08-23T11:54:28.996Z,34.11
2022-08-23T11:55:28.995Z,34.41
2022-08-23T11:56:28.975Z,34.51
2022-08-23T11:57:28.967Z,34.51
2022-08-23T11:58:29.699Z,34.41
2022-08-23T11:59:28.940Z,34.22
2022-08-23T12:00:29.737Z,33.82
2022-08-23T12:01:33.939Z,33.72
2022-08-23T12:02:29.049Z,33.70
2022-08-23T12:03:29.067Z,32.89
2022-08-23T12:04:28.901Z,32.15
2022-08-23T12:05:28.885Z,31.47
2022-08-23T12:06:28.870Z,31.96
2022-08-23T12:07:28.855Z,31.44
2022-08-23T12:08:28.861Z,30.32
2022-08-23T12:09:28.848Z,29.70
2022-08-23T12:10:28.848Z,29.17
2022-08-23T12:11:28.814Z,28.28
2022-08-23T12:12:28.803Z,27.79
2022-08-23T12:13:28.791Z,28.47
2022-08-23T12:14:34.008Z,27.48
2022-08-23T12:15:28.869Z,28.07
2022-08-23T12:16:29.064Z,28.43
2022-08-23T12:17:29.757Z,26.75
2022-08-23T12:18:29.746Z,27.06
2022-08-23T12:19:28.736Z,27.16
2022-08-23T12:20:28.734Z,27.14
2022-08-23T12:21:28.710Z,27.23
2022-08-23T12:22:28.742Z,27.04
2022-08-23T12:23:28.707Z,26.54
2022-08-23T12:24:28.678Z,26.04
2022-08-23T12:25:28.695Z,26.04
2022-08-23T12:26:28.668Z,26.04
2022-08-23T12:27:33.673Z,24.96
2022-08-23T12:28:28.642Z,25.64
2022-08-23T12:29:28.631Z,26.14
2022-08-23T12:30:28.629Z,25.14
2022-08-23T12:31:28.722Z,24.63
2022-08-23T12:32:30.394Z,23.95
2022-08-23T12:33:28.593Z,25.19
2022-08-23T12:34:28.600Z,24.23
2022-08-23T12:35:28.580Z,24.78
2022-08-23T12:36:28.560Z,26.18
2022-08-23T12:37:28.557Z,27.00
2022-08-23T12:38:33.564Z,26.95
2022-08-23T12:39:28.534Z,25.85
2022-08-23T12:40:28.530Z,25.04
2022-08-23T12:41:28.508Z,25.13
2022-08-23T12:42:28.503Z,23.76
2022-08-23T12:43:28.503Z,24.13
2022-08-23T12:44:28.483Z,24.15
2022-08-23T12:45:28.552Z,24.43
2022-08-23T12:46:28.521Z,24.73
2022-08-23T12:47:28.458Z,25.52
2022-08-23T12:48:28.439Z,23.86
2022-08-23T12:49:33.456Z,25.45
2022-08-23T12:50:32.718Z,25.97
2022-08-23T12:51:28.452Z,25.90
2022-08-23T12:52:28.399Z,27.26
2022-08-23T12:53:28.388Z,26.79
2022-08-23T12:54:28.383Z,28.18
2022-08-23T12:55:28.379Z,27.69
2022-08-23T12:56:31.653Z,27.41
2022-08-23T12:57:28.348Z,28.59
2022-08-23T12:58:31.645Z,28.61
2022-08-23T12:59:28.329Z,28.72
2022-08-23T13:00:33.949Z,29.61
2022-08-23T13:01:30.015Z,29.53
2022-08-23T13:02:28.346Z,29.53
2022-08-23T13:03:28.317Z,30.04
2022-08-23T13:04:28.289Z,29.64
2022-08-23T13:05:28.299Z,29.27
2022-08-23T13:06:28.264Z,30.35
2022-08-23T13:07:28.257Z,30.07
2022-08-23T13:08:34.703Z,29.77
2022-08-23T13:09:29.360Z,30.77
2022-08-23T13:10:28.230Z,30.57
2022-08-23T13:11:33.225Z,30.00
2022-08-23T13:12:28.215Z,30.39
2022-08-23T13:13:28.211Z,31.37
2022-08-23T13:14:31.141Z,31.57
2022-08-23T13:15:28.201Z,31.27
2022-08-23T13:16:28.292Z,30.70
2022-08-23T13:17:28.140Z,31.09
2022-08-23T13:18:28.135Z,31.29
2022-08-23T13:19:28.125Z,31.87
2022-08-23T13:20:28.131Z,31.29
2022-08-23T13:21:28.108Z,31.77
2022-08-23T13:22:28.089Z,31.87
2022-08-23T13:23:28.079Z,31.48
2022-08-23T13:24:37.720Z,30.80
2022-08-23T13:25:32.006Z,31.38
2022-08-23T13:26:28.070Z,31.09
2022-08-23T13:27:28.859Z,30.32
2022-08-23T13:28:29.024Z,30.81
2022-08-23T13:29:28.030Z,30.73
2022-08-23T13:30:28.040Z,31.73
2022-08-23T13:31:28.024Z,31.54
2022-08-23T13:32:27.981Z,31.74
2022-08-23T13:33:27.972Z,31.56
2022-08-23T13:34:27.960Z,32.24
2022-08-23T13:35:27.967Z,32.54
2022-08-23T13:36:27.940Z,32.05
2022-08-23T13:37:32.970Z,31.45
2022-08-23T13:38:27.946Z,31.94
2022-08-23T13:39:27.940Z,33.10
2022-08-23T13:40:27.956Z,32.12
2022-08-23T13:41:27.886Z,31.33
2022-08-23T13:42:27.901Z,31.43
2022-08-23T13:43:27.866Z,32.71
2022-08-23T13:44:27.856Z,31.43
2022-08-23T13:45:27.842Z,32.20
2022-08-23T13:46:27.962Z,31.63
2022-08-23T13:47:27.874Z,32.41
2022-08-23T13:48:27.810Z,31.82
2022-08-23T13:49:27.801Z,31.53
2022-08-23T13:50:32.829Z,31.53
2022-08-23T13:51:27.812Z,31.63
2022-08-23T13:52:50.890Z,31.73
2022-08-23T13:53:28.756Z,31.53
2022-08-23T13:54:27.754Z,31.53
2022-08-23T13:55:27.738Z,31.33
2022-08-23T13:56:27.737Z,31.63
2022-08-23T13:57:30.161Z,30.94
2022-08-23T13:58:27.702Z,31.33
2022-08-23T13:59:31.781Z,32.20
2022-08-23T14:00:27.701Z,31.71
2022-08-23T14:01:27.736Z,31.51
2022-08-23T14:02:27.662Z,32.10
2022-08-23T14:03:32.674Z,31.71
2022-08-23T14:04:27.661Z,31.32
2022-08-23T14:05:27.672Z,30.93
2022-08-23T14:06:28.725Z,31.41
2022-08-23T14:07:27.607Z,30.91
2022-08-23T14:08:27.597Z,30.71
2022-08-23T14:09:27.586Z,31.60
2022-08-23T14:10:27.576Z,30.52
2022-08-23T14:11:27.588Z,30.91
2022-08-23T14:12:27.896Z,30.52
2022-08-23T14:13:27.547Z,31.10
2022-08-23T14:14:27.533Z,31.10
2022-08-23T14:16:34.164Z,30.32
2022-08-23T14:17:27.548Z,31.02
2022-08-23T14:18:27.537Z,30.24
2022-08-23T14:20:33.432Z,31.32
2022-08-23T14:21:28.482Z,30.04
2022-08-23T14:22:27.448Z,30.53
2022-08-23T14:23:27.436Z,30.43
2022-08-23T14:24:27.427Z,30.82
2022-08-23T14:25:27.418Z,31.02
2022-08-23T14:26:27.417Z,31.22
2022-08-23T14:27:27.397Z,31.41
2022-08-23T14:28:27.384Z,30.73
2022-08-23T14:29:32.398Z,30.24
2022-08-23T14:30:29.291Z,30.43
2022-08-23T14:31:27.399Z,31.10
2022-08-23T14:32:27.337Z,31.32
2022-08-23T14:33:27.347Z,31.20
2022-08-23T14:34:27.319Z,30.71
2022-08-23T14:35:27.308Z,30.32
2022-08-23T14:36:30.002Z,30.32
2022-08-23T14:38:28.274Z,30.93
2022-08-23T14:39:27.294Z,30.33
2022-08-23T14:40:27.323Z,30.62
2022-08-23T14:41:27.246Z,30.42
2022-08-23T14:42:32.329Z,30.22
2022-08-23T14:43:27.243Z,30.12
2022-08-23T14:44:33.122Z,30.02
2022-08-23T14:45:28.200Z,30.12
2022-08-23T14:46:27.278Z,29.72
2022-08-23T14:47:27.197Z,31.01
2022-08-23T14:48:27.172Z,31.10
2022-08-23T14:49:27.185Z,30.42
2022-08-23T14:50:28.243Z,31.10
2022-08-23T14:51:27.138Z,31.02
2022-08-23T14:52:27.136Z,30.42
2022-08-23T14:53:27.119Z,30.62
2022-08-23T14:54:27.104Z,30.22
2022-08-23T14:55:32.117Z,30.32
2022-08-23T14:56:27.104Z,30.52
2022-08-23T14:57:27.110Z,30.91
2022-08-23T14:58:27.058Z,30.40
2022-08-23T14:59:27.056Z,30.32
2022-08-23T15:00:27.041Z,30.12
2022-08-23T15:01:27.086Z,29.93
2022-08-23T15:02:27.030Z,30.12
2022-08-23T15:03:27.055Z,30.73
2022-08-23T15:04:32.375Z,31.41
2022-08-23T15:05:27.989Z,30.53
2022-08-23T15:06:26.975Z,30.42
2022-08-23T15:07:26.980Z,30.71
2022-08-23T15:08:31.977Z,30.42
2022-08-23T15:09:26.964Z,30.22
2022-08-23T15:13:33.844Z,30.32
2022-08-23T15:14:27.888Z,30.42
2022-08-23T15:15:26.887Z,30.42
2022-08-23T15:16:26.922Z,29.85
2022-08-23T15:17:31.315Z,30.04
2022-08-23T15:18:26.857Z,30.73
2022-08-23T15:19:26.852Z,31.32
2022-08-23T15:20:26.824Z,30.63
2022-08-23T15:21:31.839Z,30.43
2022-08-23T15:22:26.844Z,30.53
2022-08-23T15:23:26.818Z,29.73
2022-08-23T15:24:26.783Z,30.42
2022-08-23T15:25:26.773Z,30.52
2022-08-23T15:26:26.760Z,30.91
2022-08-23T15:27:26.764Z,30.43
2022-08-23T15:28:26.741Z,30.14
2022-08-23T15:29:26.731Z,30.33
2022-08-23T15:30:26.828Z,30.33
2022-08-23T15:31:26.704Z,30.24
2022-08-23T15:32:26.708Z,30.53
2022-08-23T15:33:30.822Z,30.43
2022-08-23T15:34:33.313Z,30.04
2022-08-23T15:35:26.694Z,29.94
2022-08-23T15:36:26.702Z,30.02
2022-08-23T15:37:26.654Z,30.04
2022-08-23T15:38:26.639Z,30.63
2022-08-23T15:39:26.625Z,29.85
2022-08-23T15:40:26.669Z,30.04
2022-08-23T15:41:26.596Z,30.33
2022-08-23T15:42:26.602Z,30.24
2022-08-23T15:43:34.017Z,30.43
2022-08-23T15:44:27.571Z,30.43
2022-08-23T15:45:26.554Z,30.25
2022-08-23T15:46:26.642Z,31.12
2022-08-23T15:47:31.568Z,30.33
2022-08-23T15:48:26.556Z,30.04
2022-08-23T15:49:26.535Z,31.02
2022-08-23T15:50:26.503Z,30.84
2022-08-23T15:51:26.497Z,30.15
2022-08-23T15:52:26.510Z,31.13
2022-08-23T15:53:26.469Z,30.14
2022-08-23T15:54:26.470Z,29.96
2022-08-23T15:55:26.452Z,30.24
2022-08-23T15:56:26.444Z,30.15
2022-08-23T15:57:27.939Z,29.96
2022-08-23T15:58:26.423Z,30.05
2022-08-23T15:59:26.413Z,30.15
2022-08-23T16:00:31.956Z,30.35
2022-08-23T16:01:26.461Z,30.15
2022-08-23T16:02:26.441Z,30.85
2022-08-23T16:03:26.475Z,30.95
2022-08-23T16:04:26.351Z,29.77
2022-08-23T16:05:27.342Z,30.74
2022-08-23T16:06:26.336Z,31.13
2022-08-23T16:07:26.335Z,29.66
2022-08-23T16:08:26.324Z,29.96
2022-08-23T16:09:26.339Z,30.94
2022-08-23T16:10:28.099Z,30.74
2022-08-23T16:11:26.276Z,30.05
2022-08-23T16:12:26.268Z,30.55
2022-08-23T16:13:31.287Z,30.65
2022-08-23T16:14:26.291Z,30.84
2022-08-23T16:15:26.261Z,30.84
2022-08-23T16:16:26.294Z,30.74
2022-08-23T16:17:26.213Z,30.55
2022-08-23T16:18:26.217Z,30.15
2022-08-23T16:19:26.196Z,30.15
2022-08-23T16:20:26.181Z,30.35
2022-08-23T16:21:26.176Z,30.43
2022-08-23T16:22:26.163Z,30.24
2022-08-23T16:23:26.158Z,30.24
2022-08-23T16:24:26.144Z,30.73
2022-08-23T16:25:26.130Z,30.93
2022-08-23T16:26:35.157Z,30.15
2022-08-23T16:27:26.174Z,30.45
2022-08-23T16:28:26.129Z,30.94
2022-08-23T16:29:26.087Z,30.45
2022-08-23T16:30:26.093Z,30.05
2022-08-23T16:31:38.617Z,30.46
2022-08-23T16:32:27.055Z,29.77
2022-08-23T16:33:26.067Z,30.35
2022-08-23T16:34:26.089Z,30.95
2022-08-23T16:35:26.067Z,30.07
2022-08-23T16:36:30.101Z,30.15
2022-08-23T16:37:26.025Z,30.15
2022-08-23T16:38:26.025Z,29.86
2022-08-23T16:39:31.000Z,29.68
2022-08-23T16:40:26.058Z,29.86
2022-08-23T16:41:25.977Z,30.35
2022-08-23T16:42:25.961Z,30.05
2022-08-23T16:43:25.951Z,30.05
2022-08-23T16:44:25.922Z,29.66
2022-08-23T16:45:26.512Z,30.25
2022-08-23T16:46:26.001Z,30.15
2022-08-23T16:47:25.890Z,29.37
2022-08-23T16:48:25.898Z,29.86
2022-08-23T16:49:25.873Z,30.05
2022-08-23T16:50:25.861Z,30.25
2022-08-23T16:51:25.845Z,29.96
2022-08-23T16:52:35.004Z,29.27
2022-08-23T16:53:25.943Z,30.05
2022-08-23T16:54:25.851Z,30.05
2022-08-23T16:55:25.807Z,30.05
2022-08-23T16:56:25.795Z,30.55
2022-08-23T16:57:25.781Z,29.38
2022-08-23T16:58:25.809Z,29.87